sensor_id;sensor_type;location;lat;lon;timestamp;temperature;humidity
9901;DHT22;4989;48.772;9.154;2023-08-01T00:03:55;19.90;99.90
9901;DHT22;4989;48.772;9.154;2023-08-01T00:08:57;19.60;99.90
9901;DHT22;4989;48.772;9.154;2023-08-01T00:13:59;19.80;99.90
9901;DHT22;4989;48.772;9.154;2023-08-01T00:19:02;19.80;99.90
9901;DHT22;4989;48.772;9.154;2023-08-01T00:24:04;20.00;99.90
9901;DHT22;4989;48.772;9.154;2023-08-01T00:29:08;20.10;99.90
9901;DHT22;4989;48.772;9.154;2023-08-01T00:34:10;19.90;99.90
9901;DHT22;4989;48.772;9.154;2023-08-01T00:44:55;20.70;99.90
9901;DHT22;4989;48.772;9.154;2023-08-01T00:49:57;20.80;99.90
9901;DHT22;4989;48.772;9.154;2023-08-01T00:55:00;20.90;99.90
9901;DHT22;4989;48.772;9.154;2023-08-01T01:00:02;21.20;99.90
9901;DHT22;4989;48.772;9.154;2023-08-01T01:05:05;20.60;99.90
9901;DHT22;4989;48.772;9.154;2023-08-01T01:10:07;20.40;99.90
9901;DHT22;4989;48.772;9.154;2023-08-01T01:15:10;20.50;99.90
9901;DHT22;4989;48.772;9.154;2023-08-01T01:20:12;20.30;99.90
9901;DHT22;4989;48.772;9.154;2023-08-01T01:25:15;19.90;99.90
9901;DHT22;4989;48.772;9.154;2023-08-01T01:30:20;20.00;99.90
9901;DHT22;4989;48.772;9.154;2023-08-01T01:35:27;20.10;99.90
9901;DHT22;4989;48.772;9.154;2023-08-01T01:40:33;19.80;99.90
9901;DHT22;4989;48.772;9.154;2023-08-01T01:45:38;19.70;99.90
9901;DHT22;4989;48.772;9.154;2023-08-01T01:50:40;20.10;99.90
9901;DHT22;4989;48.772;9.154;2023-08-01T01:55:47;20.20;99.90
9901;DHT22;4989;48.772;9.154;2023-08-01T02:00:49;20.20;99.90
9901;DHT22;4989;48.772;9.154;2023-08-01T02:05:52;20.10;99.90
9901;DHT22;4989;48.772;9.154;2023-08-01T02:10:55;20.20;99.90
9901;DHT22;4989;48.772;9.154;2023-08-01T02:15:59;20.60;99.90
9901;DHT22;4989;48.772;9.154;2023-08-01T02:21:02;20.70;99.90
9901;DHT22;4989;48.772;9.154;2023-08-01T02:26:04;20.60;99.90
9901;DHT22;4989;48.772;9.154;2023-08-01T02:31:07;20.50;99.90
9901;DHT22;4989;48.772;9.154;2023-08-01T02:36:09;20.40;99.90
9901;DHT22;4989;48.772;9.154;2023-08-01T02:41:11;20.60;99.90
9901;DHT22;4989;48.772;9.154;2023-08-01T02:46:13;20.50;99.90
9901;DHT22;4989;48.772;9.154;2023-08-01T02:51:15;20.00;99.90
9901;DHT22;4989;48.772;9.154;2023-08-01T02:56:17;19.70;99.90
9901;DHT22;4989;48.772;9.154;2023-08-01T03:01:20;19.50;99.90
9901;DHT22;4989;48.772;9.154;2023-08-01T03:06:22;19.60;99.90
9901;DHT22;4989;48.772;9.154;2023-08-01T03:11:26;19.70;99.90
9901;DHT22;4989;48.772;9.154;2023-08-01T03:16:29;19.70;99.90
9901;DHT22;4989;48.772;9.154;2023-08-01T03:21:33;19.70;99.90
9901;DHT22;4989;48.772;9.154;2023-08-01T03:26:36;19.90;99.90
9901;DHT22;4989;48.772;9.154;2023-08-01T03:31:39;19.90;99.90
9901;DHT22;4989;48.772;9.154;2023-08-01T03:36:41;20.20;99.90
9901;DHT22;4989;48.772;9.154;2023-08-01T03:41:43;20.00;99.90
9901;DHT22;4989;48.772;9.154;2023-08-01T03:46:46;19.90;99.90
9901;DHT22;4989;48.772;9.154;2023-08-01T03:51:49;19.70;99.90
9901;DHT22;4989;48.772;9.154;2023-08-01T03:56:51;19.60;99.90
9901;DHT22;4989;48.772;9.154;2023-08-01T04:11:59;19.70;99.90
9901;DHT22;4989;48.772;9.154;2023-08-01T04:17:02;19.50;99.90
9901;DHT22;4989;48.772;9.154;2023-08-01T04:22:04;19.50;99.90
9901;DHT22;4989;48.772;9.154;2023-08-01T04:27:06;19.30;99.90
9901;DHT22;4989;48.772;9.154;2023-08-01T04:32:09;19.40;99.90
9901;DHT22;4989;48.772;9.154;2023-08-01T04:37:14;19.30;99.90
9901;DHT22;4989;48.772;9.154;2023-08-01T04:42:17;19.30;99.90
9901;DHT22;4989;48.772;9.154;2023-08-01T04:47:19;19.60;99.90
9901;DHT22;4989;48.772;9.154;2023-08-01T04:52:22;19.40;99.90
9901;DHT22;4989;48.772;9.154;2023-08-01T04:57:25;19.50;99.90
9901;DHT22;4989;48.772;9.154;2023-08-01T05:02:27;19.90;99.90
9901;DHT22;4989;48.772;9.154;2023-08-01T05:07:30;19.80;99.90
9901;DHT22;4989;48.772;9.154;2023-08-01T05:12:32;19.90;99.90
9901;DHT22;4989;48.772;9.154;2023-08-01T05:17:34;20.20;99.90
9901;DHT22;4989;48.772;9.154;2023-08-01T05:22:36;20.40;99.90
9901;DHT22;4989;48.772;9.154;2023-08-01T05:27:39;21.00;99.90
9901;DHT22;4989;48.772;9.154;2023-08-01T05:32:41;21.40;99.20
9901;DHT22;4989;48.772;9.154;2023-08-01T05:37:45;21.50;97.80
9901;DHT22;4989;48.772;9.154;2023-08-01T05:42:47;21.10;97.70
9901;DHT22;4989;48.772;9.154;2023-08-01T05:47:49;20.60;98.00
9901;DHT22;4989;48.772;9.154;2023-08-01T05:52:52;20.50;99.70
9901;DHT22;4989;48.772;9.154;2023-08-01T05:57:54;20.60;97.80
9901;DHT22;4989;48.772;9.154;2023-08-01T06:02:57;21.00;99.20
9901;DHT22;4989;48.772;9.154;2023-08-01T06:07:59;21.10;97.20
9901;DHT22;4989;48.772;9.154;2023-08-01T06:13:01;21.00;96.60
9901;DHT22;4989;48.772;9.154;2023-08-01T06:18:03;20.60;96.10
9901;DHT22;4989;48.772;9.154;2023-08-01T06:23:06;20.50;97.40
9901;DHT22;4989;48.772;9.154;2023-08-01T06:28:08;20.40;97.90
9901;DHT22;4989;48.772;9.154;2023-08-01T06:33:10;20.20;99.00
9901;DHT22;4989;48.772;9.154;2023-08-01T06:38:12;19.80;99.90
9901;DHT22;4989;48.772;9.154;2023-08-01T06:43:15;19.70;99.90
9901;DHT22;4989;48.772;9.154;2023-08-01T06:48:17;20.00;99.90
9901;DHT22;4989;48.772;9.154;2023-08-01T06:53:19;19.40;99.90
9901;DHT22;4989;48.772;9.154;2023-08-01T06:58:22;19.30;99.90
9901;DHT22;4989;48.772;9.154;2023-08-01T07:03:27;18.90;99.90
9901;DHT22;4989;48.772;9.154;2023-08-01T07:08:29;19.00;99.90
9901;DHT22;4989;48.772;9.154;2023-08-01T07:13:31;19.20;99.90
9901;DHT22;4989;48.772;9.154;2023-08-01T07:18:34;19.10;99.90
9901;DHT22;4989;48.772;9.154;2023-08-01T07:23:36;19.10;99.90
9901;DHT22;4989;48.772;9.154;2023-08-01T07:28:38;19.20;99.90
9901;DHT22;4989;48.772;9.154;2023-08-01T07:33:40;19.20;99.90
9901;DHT22;4989;48.772;9.154;2023-08-01T07:38:42;19.10;99.90
9901;DHT22;4989;48.772;9.154;2023-08-01T07:43:45;18.80;99.90
9901;DHT22;4989;48.772;9.154;2023-08-01T07:48:47;18.50;99.90
9901;DHT22;4989;48.772;9.154;2023-08-01T07:53:54;17.90;99.90
9901;DHT22;4989;48.772;9.154;2023-08-01T07:59:02;17.80;99.90
9901;DHT22;4989;48.772;9.154;2023-08-01T08:04:13;17.80;99.90
9901;DHT22;4989;48.772;9.154;2023-08-01T08:09:30;18.30;99.90
9901;DHT22;4989;48.772;9.154;2023-08-01T08:14:32;18.10;99.90
9901;DHT22;4989;48.772;9.154;2023-08-01T08:19:36;17.80;99.90
9901;DHT22;4989;48.772;9.154;2023-08-01T08:24:50;18.20;99.90
9901;DHT22;4989;48.772;9.154;2023-08-01T08:29:55;18.00;99.90
9901;DHT22;4989;48.772;9.154;2023-08-01T08:35:00;18.10;99.90
9901;DHT22;4989;48.772;9.154;2023-08-01T08:40:07;18.40;99.90
9901;DHT22;4989;48.772;9.154;2023-08-01T08:45:16;18.50;99.90
9901;DHT22;4989;48.772;9.154;2023-08-01T08:50:23;19.10;99.90
9901;DHT22;4989;48.772;9.154;2023-08-01T08:55:29;19.40;99.90
9901;DHT22;4989;48.772;9.154;2023-08-01T09:00:35;19.00;99.90
9901;DHT22;4989;48.772;9.154;2023-08-01T09:11:26;18.70;99.90
9901;DHT22;4989;48.772;9.154;2023-08-01T09:16:28;18.70;99.90
9901;DHT22;4989;48.772;9.154;2023-08-01T09:21:36;18.60;99.90
9901;DHT22;4989;48.772;9.154;2023-08-01T09:26:45;18.70;99.90
9901;DHT22;4989;48.772;9.154;2023-08-01T09:31:52;18.70;99.90
9901;DHT22;4989;48.772;9.154;2023-08-01T09:37:00;18.90;99.90
9901;DHT22;4989;48.772;9.154;2023-08-01T09:42:15;19.10;99.90
9901;DHT22;4989;48.772;9.154;2023-08-01T09:47:17;19.60;99.90
9901;DHT22;4989;48.772;9.154;2023-08-01T09:52:54;19.40;99.90
9901;DHT22;4989;48.772;9.154;2023-08-01T09:58:02;19.40;99.90
9901;DHT22;4989;48.772;9.154;2023-08-01T10:03:09;19.40;99.90
9901;DHT22;4989;48.772;9.154;2023-08-01T10:08:13;19.30;99.90
9901;DHT22;4989;48.772;9.154;2023-08-01T10:13:20;19.40;99.90
9901;DHT22;4989;48.772;9.154;2023-08-01T10:18:28;19.70;99.90
9901;DHT22;4989;48.772;9.154;2023-08-01T10:23:43;20.00;99.90
9901;DHT22;4989;48.772;9.154;2023-08-01T10:28:53;20.40;99.90
9901;DHT22;4989;48.772;9.154;2023-08-01T10:34:15;20.20;99.90
9901;DHT22;4989;48.772;9.154;2023-08-01T10:39:22;20.10;99.90
9901;DHT22;4989;48.772;9.154;2023-08-01T10:44:26;20.50;99.90
9901;DHT22;4989;48.772;9.154;2023-08-01T10:49:40;21.30;99.90
9901;DHT22;4989;48.772;9.154;2023-08-01T10:55:01;22.60;99.90
9901;DHT22;4989;48.772;9.154;2023-08-01T11:00:07;23.20;99.90
9901;DHT22;4989;48.772;9.154;2023-08-01T11:05:14;23.70;93.30
9901;DHT22;4989;48.772;9.154;2023-08-01T11:10:16;23.50;94.10
9901;DHT22;4989;48.772;9.154;2023-08-01T11:15:19;23.10;95.70
9901;DHT22;4989;48.772;9.154;2023-08-01T11:20:24;23.60;94.10
9901;DHT22;4989;48.772;9.154;2023-08-01T11:25:45;23.90;91.10
9901;DHT22;4989;48.772;9.154;2023-08-01T11:30:53;23.80;87.70
9901;DHT22;4989;48.772;9.154;2023-08-01T11:35:57;24.40;77.90
9901;DHT22;4989;48.772;9.154;2023-08-01T11:41:05;25.20;73.50
9901;DHT22;4989;48.772;9.154;2023-08-01T11:46:07;24.20;70.60
9901;DHT22;4989;48.772;9.154;2023-08-01T11:51:12;25.00;68.50
9901;DHT22;4989;48.772;9.154;2023-08-01T11:56:20;25.90;66.80
9901;DHT22;4989;48.772;9.154;2023-08-01T12:01:26;24.80;66.40
9901;DHT22;4989;48.772;9.154;2023-08-01T12:06:31;25.10;74.10
9901;DHT22;4989;48.772;9.154;2023-08-01T12:11:43;25.60;68.20
9901;DHT22;4989;48.772;9.154;2023-08-01T12:22:39;26.50;66.20
9901;DHT22;4989;48.772;9.154;2023-08-01T12:27:46;27.20;61.60
9901;DHT22;4989;48.772;9.154;2023-08-01T12:32:49;26.30;64.30
9901;DHT22;4989;48.772;9.154;2023-08-01T12:37:54;26.30;64.60
9901;DHT22;4989;48.772;9.154;2023-08-01T12:42:58;26.20;61.00
9901;DHT22;4989;48.772;9.154;2023-08-01T12:48:01;26.40;63.70
9901;DHT22;4989;48.772;9.154;2023-08-01T12:53:03;27.60;60.20
9901;DHT22;4989;48.772;9.154;2023-08-01T12:58:06;26.80;61.80
9901;DHT22;4989;48.772;9.154;2023-08-01T13:03:08;27.40;62.00
9901;DHT22;4989;48.772;9.154;2023-08-01T13:08:11;26.90;54.70
9901;DHT22;4989;48.772;9.154;2023-08-01T13:13:13;26.40;61.90
9901;DHT22;4989;48.772;9.154;2023-08-01T13:18:15;26.70;59.20
9901;DHT22;4989;48.772;9.154;2023-08-01T13:23:19;27.70;61.80
9901;DHT22;4989;48.772;9.154;2023-08-01T13:28:24;28.30;56.60
9901;DHT22;4989;48.772;9.154;2023-08-01T13:33:28;28.40;60.60
9901;DHT22;4989;48.772;9.154;2023-08-01T13:38:34;28.80;59.30
9901;DHT22;4989;48.772;9.154;2023-08-01T13:43:42;27.70;59.40
9901;DHT22;4989;48.772;9.154;2023-08-01T13:48:46;28.50;59.40
9901;DHT22;4989;48.772;9.154;2023-08-01T13:53:48;28.80;59.50
9901;DHT22;4989;48.772;9.154;2023-08-01T13:58:53;28.70;58.90
9901;DHT22;4989;48.772;9.154;2023-08-01T14:03:55;27.70;57.50
9901;DHT22;4989;48.772;9.154;2023-08-01T14:08:57;28.30;57.30
9901;DHT22;4989;48.772;9.154;2023-08-01T14:14:00;28.50;59.40
9901;DHT22;4989;48.772;9.154;2023-08-01T14:19:03;27.60;55.70
9901;DHT22;4989;48.772;9.154;2023-08-01T14:24:08;27.20;52.90
9901;DHT22;4989;48.772;9.154;2023-08-01T14:29:10;27.50;58.80
9901;DHT22;4989;48.772;9.154;2023-08-01T14:34:12;27.60;56.60
9901;DHT22;4989;48.772;9.154;2023-08-01T14:39:17;27.10;52.80
9901;DHT22;4989;48.772;9.154;2023-08-01T14:44:27;27.10;57.40
9901;DHT22;4989;48.772;9.154;2023-08-01T14:49:31;27.60;58.30
9901;DHT22;4989;48.772;9.154;2023-08-01T14:54:33;27.80;56.50
9901;DHT22;4989;48.772;9.154;2023-08-01T14:59:42;28.00;57.40
9901;DHT22;4989;48.772;9.154;2023-08-01T15:04:44;27.90;56.90
9901;DHT22;4989;48.772;9.154;2023-08-01T15:09:47;27.90;57.80
9901;DHT22;4989;48.772;9.154;2023-08-01T15:14:55;27.40;57.80
9901;DHT22;4989;48.772;9.154;2023-08-01T15:19:59;27.60;56.20
9901;DHT22;4989;48.772;9.154;2023-08-01T15:25:03;27.60;55.70
9901;DHT22;4989;48.772;9.154;2023-08-01T15:30:06;27.50;57.90
9901;DHT22;4989;48.772;9.154;2023-08-01T15:35:08;27.30;58.20
9901;DHT22;4989;48.772;9.154;2023-08-01T15:40:11;27.00;58.80
9901;DHT22;4989;48.772;9.154;2023-08-01T15:45:13;26.40;55.50
9901;DHT22;4989;48.772;9.154;2023-08-01T15:50:20;25.50;56.30
9901;DHT22;4989;48.772;9.154;2023-08-01T15:55:23;25.60;59.80
9901;DHT22;4989;48.772;9.154;2023-08-01T16:00:30;25.20;55.20
9901;DHT22;4989;48.772;9.154;2023-08-01T16:05:32;25.20;59.10
9901;DHT22;4989;48.772;9.154;2023-08-01T16:10:37;24.80;56.50
9901;DHT22;4989;48.772;9.154;2023-08-01T16:15:44;25.00;56.50
9901;DHT22;4989;48.772;9.154;2023-08-01T16:20:46;25.00;57.60
9901;DHT22;4989;48.772;9.154;2023-08-01T16:25:48;25.50;60.70
9901;DHT22;4989;48.772;9.154;2023-08-01T16:30:51;25.70;60.50
9901;DHT22;4989;48.772;9.154;2023-08-01T16:35:58;25.40;58.30
9901;DHT22;4989;48.772;9.154;2023-08-01T16:41:05;25.00;62.10
9901;DHT22;4989;48.772;9.154;2023-08-01T16:46:10;24.80;57.70
9901;DHT22;4989;48.772;9.154;2023-08-01T16:51:17;25.10;62.80
9901;DHT22;4989;48.772;9.154;2023-08-01T16:56:20;24.80;56.10
9901;DHT22;4989;48.772;9.154;2023-08-01T17:01:22;24.70;57.00
9901;DHT22;4989;48.772;9.154;2023-08-01T17:06:26;25.10;61.60
9901;DHT22;4989;48.772;9.154;2023-08-01T17:11:29;24.20;57.80
9901;DHT22;4989;48.772;9.154;2023-08-01T17:16:34;24.00;62.10
9901;DHT22;4989;48.772;9.154;2023-08-01T17:21:36;23.90;59.30
9901;DHT22;4989;48.772;9.154;2023-08-01T17:26:42;23.90;59.30
9901;DHT22;4989;48.772;9.154;2023-08-01T17:31:44;23.40;58.60
9901;DHT22;4989;48.772;9.154;2023-08-01T17:36:47;23.70;58.30
9901;DHT22;4989;48.772;9.154;2023-08-01T17:41:53;23.80;59.90
9901;DHT22;4989;48.772;9.154;2023-08-01T17:47:01;24.20;59.40
9901;DHT22;4989;48.772;9.154;2023-08-01T17:52:05;24.00;58.20
9901;DHT22;4989;48.772;9.154;2023-08-01T17:57:07;23.80;61.20
9901;DHT22;4989;48.772;9.154;2023-08-01T18:02:11;24.10;61.80
9901;DHT22;4989;48.772;9.154;2023-08-01T18:07:13;24.50;61.70
9901;DHT22;4989;48.772;9.154;2023-08-01T18:12:15;23.70;61.30
9901;DHT22;4989;48.772;9.154;2023-08-01T18:17:18;23.40;58.70
9901;DHT22;4989;48.772;9.154;2023-08-01T18:22:28;23.00;59.60
9901;DHT22;4989;48.772;9.154;2023-08-01T18:27:32;23.40;59.70
9901;DHT22;4989;48.772;9.154;2023-08-01T18:39:04;23.30;59.60
9901;DHT22;4989;48.772;9.154;2023-08-01T18:44:07;23.10;60.30
9901;DHT22;4989;48.772;9.154;2023-08-01T18:49:10;22.50;61.10
9901;DHT22;4989;48.772;9.154;2023-08-01T18:54:13;22.80;60.70
9901;DHT22;4989;48.772;9.154;2023-08-01T18:59:21;23.00;62.50
9901;DHT22;4989;48.772;9.154;2023-08-01T19:04:24;22.90;61.00
9901;DHT22;4989;48.772;9.154;2023-08-01T19:09:31;22.50;62.10
9901;DHT22;4989;48.772;9.154;2023-08-01T19:14:36;22.70;61.10
9901;DHT22;4989;48.772;9.154;2023-08-01T19:19:38;23.10;61.40
9901;DHT22;4989;48.772;9.154;2023-08-01T19:24:40;23.40;61.10
9901;DHT22;4989;48.772;9.154;2023-08-01T19:29:51;23.20;60.30
9901;DHT22;4989;48.772;9.154;2023-08-01T19:34:58;22.60;61.40
9901;DHT22;4989;48.772;9.154;2023-08-01T19:40:21;22.40;66.30
9901;DHT22;4989;48.772;9.154;2023-08-01T19:45:24;22.30;62.50
9901;DHT22;4989;48.772;9.154;2023-08-01T19:50:31;22.00;62.20
9901;DHT22;4989;48.772;9.154;2023-08-01T19:55:36;22.00;63.40
9901;DHT22;4989;48.772;9.154;2023-08-01T20:00:41;21.80;63.20
9901;DHT22;4989;48.772;9.154;2023-08-01T20:05:47;21.60;64.30
9901;DHT22;4989;48.772;9.154;2023-08-01T20:10:59;21.50;64.70
9901;DHT22;4989;48.772;9.154;2023-08-01T20:16:03;21.40;64.90
9901;DHT22;4989;48.772;9.154;2023-08-01T20:21:07;21.70;64.40
9901;DHT22;4989;48.772;9.154;2023-08-01T20:26:09;21.60;64.80
9901;DHT22;4989;48.772;9.154;2023-08-01T20:31:14;21.90;64.20
9901;DHT22;4989;48.772;9.154;2023-08-01T20:36:19;21.50;65.20
9901;DHT22;4989;48.772;9.154;2023-08-01T20:41:21;21.00;66.20
9901;DHT22;4989;48.772;9.154;2023-08-01T20:46:26;21.00;66.70
9901;DHT22;4989;48.772;9.154;2023-08-01T20:51:29;21.10;66.70
9901;DHT22;4989;48.772;9.154;2023-08-01T20:56:36;21.30;66.60
9901;DHT22;4989;48.772;9.154;2023-08-01T21:01:46;20.70;67.70
9901;DHT22;4989;48.772;9.154;2023-08-01T21:06:49;20.40;69.70
9901;DHT22;4989;48.772;9.154;2023-08-01T21:11:56;20.30;69.30
9901;DHT22;4989;48.772;9.154;2023-08-01T21:17:01;20.30;69.50
9901;DHT22;4989;48.772;9.154;2023-08-01T21:22:09;20.20;70.10
9901;DHT22;4989;48.772;9.154;2023-08-01T21:27:11;20.20;69.90
9901;DHT22;4989;48.772;9.154;2023-08-01T21:32:13;20.10;70.20
9901;DHT22;4989;48.772;9.154;2023-08-01T21:37:20;20.00;71.30
9901;DHT22;4989;48.772;9.154;2023-08-01T21:42:25;19.80;71.40
9901;DHT22;4989;48.772;9.154;2023-08-01T21:47:44;19.60;71.90
9901;DHT22;4989;48.772;9.154;2023-08-01T21:52:48;19.40;72.70
9901;DHT22;4989;48.772;9.154;2023-08-01T21:57:52;19.50;72.80
9901;DHT22;4989;48.772;9.154;2023-08-01T22:02:58;19.60;73.10
9901;DHT22;4989;48.772;9.154;2023-08-01T22:08:03;19.40;73.40
9901;DHT22;4989;48.772;9.154;2023-08-01T22:13:06;19.40;73.90
9901;DHT22;4989;48.772;9.154;2023-08-01T22:18:08;19.30;74.30
9901;DHT22;4989;48.772;9.154;2023-08-01T22:23:23;19.30;74.50
9901;DHT22;4989;48.772;9.154;2023-08-01T22:28:30;19.20;75.10
9901;DHT22;4989;48.772;9.154;2023-08-01T22:33:33;19.10;75.90
9901;DHT22;4989;48.772;9.154;2023-08-01T22:38:35;19.00;76.40
9901;DHT22;4989;48.772;9.154;2023-08-01T22:43:40;19.00;76.80
9901;DHT22;4989;48.772;9.154;2023-08-01T22:48:45;18.90;77.20
9901;DHT22;4989;48.772;9.154;2023-08-01T22:53:50;18.90;77.70
9901;DHT22;4989;48.772;9.154;2023-08-01T22:58:56;18.80;78.60
9901;DHT22;4989;48.772;9.154;2023-08-01T23:04:00;18.70;79.10
9901;DHT22;4989;48.772;9.154;2023-08-01T23:09:04;18.90;79.30
9901;DHT22;4989;48.772;9.154;2023-08-01T23:14:09;19.00;79.00
9901;DHT22;4989;48.772;9.154;2023-08-01T23:19:14;18.70;80.50
9901;DHT22;4989;48.772;9.154;2023-08-01T23:24:16;18.50;81.30
9901;DHT22;4989;48.772;9.154;2023-08-01T23:29:24;18.60;81.60
9901;DHT22;4989;48.772;9.154;2023-08-01T23:34:29;18.50;82.30
9901;DHT22;4989;48.772;9.154;2023-08-01T23:45:18;18.40;83.50
9901;DHT22;4989;48.772;9.154;2023-08-01T23:50:20;18.40;84.20
9901;DHT22;4989;48.772;9.154;2023-08-01T23:55:27;18.30;84.90
